sensor_id;sensor_type;location;lat;lon;timestamp;P1;durP1;ratioP1;P2;durP2;ratioP2
43146;SDS011;28752;48.266;7.402;2022-08-18T08:25:55;15.55;;;11.52;;
43146;SDS011;28752;48.266;7.402;2022-08-18T08:31:11;15.60;;;12.40;;
43146;SDS011;28752;48.266;7.402;2022-08-18T08:33:54;14.48;;;11.77;;
43146;SDS011;28752;48.266;7.402;2022-08-18T08:36:26;14.75;;;12.85;;
43146;SDS011;28752;48.266;7.402;2022-08-18T08:38:56;14.85;;;12.15;;
43146;SDS011;28752;48.266;7.402;2022-08-18T08:44:05;15.23;;;11.43;;
43146;SDS011;28752;48.266;7.402;2022-08-18T08:46:43;14.50;;;12.93;;
43146;SDS011;28752;48.266;7.402;2022-08-18T08:51:59;14.15;;;11.55;;
43146;SDS011;28752;48.266;7.402;2022-08-18T08:57:06;12.80;;;11.23;;
43146;SDS011;28752;48.266;7.402;2022-08-18T08:59:33;13.07;;;11.18;;
43146;SDS011;28752;48.266;7.402;2022-08-18T09:04:58;11.40;;;9.85;;
43146;SDS011;28752;48.266;7.402;2022-08-18T09:18:44;10.45;;;8.18;;
43146;SDS011;28752;48.266;7.402;2022-08-18T09:21:40;9.85;;;8.30;;
43146;SDS011;28752;48.266;7.402;2022-08-18T09:37:28;10.77;;;8.00;;
43146;SDS011;28752;48.266;7.402;2022-08-18T09:40:17;10.18;;;8.88;;
43146;SDS011;28752;48.266;7.402;2022-08-18T09:43:21;10.63;;;8.43;;
43146;SDS011;28752;48.266;7.402;2022-08-18T09:45:52;10.73;;;8.63;;
43146;SDS011;28752;48.266;7.402;2022-08-18T09:48:29;11.95;;;9.02;;
43146;SDS011;28752;48.266;7.402;2022-08-18T09:56:15;11.18;;;8.13;;
43146;SDS011;28752;48.266;7.402;2022-08-18T09:59:01;10.45;;;8.43;;
43146;SDS011;28752;48.266;7.402;2022-08-18T10:06:38;9.25;;;7.82;;
43146;SDS011;28752;48.266;7.402;2022-08-18T10:09:06;10.10;;;8.23;;
43146;SDS011;28752;48.266;7.402;2022-08-18T10:11:56;9.73;;;8.02;;
43146;SDS011;28752;48.266;7.402;2022-08-18T10:14:26;8.73;;;7.43;;
43146;SDS011;28752;48.266;7.402;2022-08-18T10:19:32;11.63;;;8.00;;
43146;SDS011;28752;48.266;7.402;2022-08-18T10:24:34;8.65;;;7.45;;
43146;SDS011;28752;48.266;7.402;2022-08-18T10:27:06;9.02;;;7.65;;
43146;SDS011;28752;48.266;7.402;2022-08-18T10:29:48;9.43;;;7.90;;
43146;SDS011;28752;48.266;7.402;2022-08-18T10:32:16;10.30;;;8.13;;
43146;SDS011;28752;48.266;7.402;2022-08-18T10:34:47;11.18;;;7.97;;
43146;SDS011;28752;48.266;7.402;2022-08-18T10:37:17;10.77;;;8.02;;
43146;SDS011;28752;48.266;7.402;2022-08-18T10:39:56;10.52;;;8.70;;
43146;SDS011;28752;48.266;7.402;2022-08-18T10:42:30;10.60;;;8.73;;
43146;SDS011;28752;48.266;7.402;2022-08-18T10:47:32;9.07;;;7.72;;
43146;SDS011;28752;48.266;7.402;2022-08-18T10:49:58;10.18;;;8.50;;
43146;SDS011;28752;48.266;7.402;2022-08-18T10:57:57;9.63;;;8.50;;
43146;SDS011;28752;48.266;7.402;2022-08-18T11:06:38;9.35;;;7.90;;
43146;SDS011;28752;48.266;7.402;2022-08-18T11:09:07;11.40;;;9.18;;
43146;SDS011;28752;48.266;7.402;2022-08-18T11:11:34;13.43;;;9.82;;
43146;SDS011;28752;48.266;7.402;2022-08-18T11:16:44;11.43;;;10.23;;
43146;SDS011;28752;48.266;7.402;2022-08-18T11:19:19;11.35;;;10.02;;
43146;SDS011;28752;48.266;7.402;2022-08-18T11:21:49;12.45;;;9.18;;
43146;SDS011;28752;48.266;7.402;2022-08-18T11:24:18;10.40;;;9.30;;
43146;SDS011;28752;48.266;7.402;2022-08-18T11:39:51;10.43;;;9.10;;
43146;SDS011;28752;48.266;7.402;2022-08-18T11:42:19;10.40;;;9.40;;
43146;SDS011;28752;48.266;7.402;2022-08-18T11:45:17;13.38;;;11.27;;
43146;SDS011;28752;48.266;7.402;2022-08-18T11:48:08;11.95;;;9.93;;
43146;SDS011;28752;48.266;7.402;2022-08-18T11:50:46;11.77;;;10.57;;
43146;SDS011;28752;48.266;7.402;2022-08-18T11:58:39;11.93;;;9.88;;
43146;SDS011;28752;48.266;7.402;2022-08-18T12:01:07;11.27;;;10.18;;
43146;SDS011;28752;48.266;7.402;2022-08-18T12:03:41;10.75;;;9.65;;
43146;SDS011;28752;48.266;7.402;2022-08-18T12:06:18;10.88;;;9.40;;
43146;SDS011;28752;48.266;7.402;2022-08-18T12:08:57;11.00;;;9.90;;
43146;SDS011;28752;48.266;7.402;2022-08-18T12:11:28;12.40;;;11.00;;
43146;SDS011;28752;48.266;7.402;2022-08-18T12:13:59;13.18;;;10.30;;
43146;SDS011;28752;48.266;7.402;2022-08-18T12:16:32;11.50;;;10.30;;
43146;SDS011;28752;48.266;7.402;2022-08-18T12:18:58;12.57;;;10.82;;
43146;SDS011;28752;48.266;7.402;2022-08-18T12:21:24;11.43;;;10.23;;
43146;SDS011;28752;48.266;7.402;2022-08-18T12:23:49;12.35;;;11.00;;
43146;SDS011;28752;48.266;7.402;2022-08-18T12:26:15;12.00;;;10.88;;
43146;SDS011;28752;48.266;7.402;2022-08-18T12:28:41;13.48;;;12.18;;
43146;SDS011;28752;48.266;7.402;2022-08-18T12:31:07;12.20;;;10.65;;
43146;SDS011;28752;48.266;7.402;2022-08-18T12:33:33;11.77;;;10.57;;
43146;SDS011;28752;48.266;7.402;2022-08-18T12:36:00;12.88;;;11.57;;
43146;SDS011;28752;48.266;7.402;2022-08-18T12:38:32;14.32;;;12.93;;
43146;SDS011;28752;48.266;7.402;2022-08-18T12:40:58;12.98;;;11.63;;
43146;SDS011;28752;48.266;7.402;2022-08-18T12:43:24;13.03;;;11.77;;
43146;SDS011;28752;48.266;7.402;2022-08-18T12:45:49;13.32;;;11.48;;
43146;SDS011;28752;48.266;7.402;2022-08-18T12:48:15;14.85;;;12.93;;
43146;SDS011;28752;48.266;7.402;2022-08-18T12:50:41;14.90;;;13.40;;
43146;SDS011;28752;48.266;7.402;2022-08-18T12:53:08;15.48;;;13.98;;
43146;SDS011;28752;48.266;7.402;2022-08-18T12:55:35;15.82;;;14.23;;
43146;SDS011;28752;48.266;7.402;2022-08-18T12:58:05;14.73;;;13.25;;
43146;SDS011;28752;48.266;7.402;2022-08-18T13:00:30;15.38;;;13.77;;
43146;SDS011;28752;48.266;7.402;2022-08-18T13:02:56;16.23;;;14.50;;
43146;SDS011;28752;48.266;7.402;2022-08-18T13:05:22;15.48;;;13.88;;
43146;SDS011;28752;48.266;7.402;2022-08-18T13:07:48;17.55;;;15.70;;
43146;SDS011;28752;48.266;7.402;2022-08-18T13:10:13;16.85;;;15.10;;
43146;SDS011;28752;48.266;7.402;2022-08-18T13:12:38;17.25;;;15.32;;
43146;SDS011;28752;48.266;7.402;2022-08-18T13:15:07;18.02;;;16.08;;
43146;SDS011;28752;48.266;7.402;2022-08-18T13:17:35;18.15;;;16.05;;
43146;SDS011;28752;48.266;7.402;2022-08-18T13:20:07;17.27;;;15.48;;
43146;SDS011;28752;48.266;7.402;2022-08-18T13:22:35;19.92;;;17.00;;
43146;SDS011;28752;48.266;7.402;2022-08-18T13:25:04;19.55;;;17.67;;
43146;SDS011;28752;48.266;7.402;2022-08-18T13:27:31;19.50;;;17.60;;
43146;SDS011;28752;48.266;7.402;2022-08-18T13:29:57;19.75;;;17.85;;
43146;SDS011;28752;48.266;7.402;2022-08-18T13:32:23;18.83;;;17.02;;
43146;SDS011;28752;48.266;7.402;2022-08-18T13:34:49;19.38;;;17.58;;
43146;SDS011;28752;48.266;7.402;2022-08-18T13:37:16;20.02;;;17.92;;
43146;SDS011;28752;48.266;7.402;2022-08-18T13:39:41;19.50;;;17.60;;
43146;SDS011;28752;48.266;7.402;2022-08-18T13:42:07;18.77;;;16.98;;
43146;SDS011;28752;48.266;7.402;2022-08-18T13:44:33;18.70;;;16.83;;
43146;SDS011;28752;48.266;7.402;2022-08-18T13:46:58;17.67;;;15.88;;
43146;SDS011;28752;48.266;7.402;2022-08-18T13:49:24;16.98;;;15.35;;
43146;SDS011;28752;48.266;7.402;2022-08-18T13:51:50;18.08;;;16.27;;
43146;SDS011;28752;48.266;7.402;2022-08-18T13:54:24;18.52;;;16.63;;
43146;SDS011;28752;48.266;7.402;2022-08-18T13:56:52;18.30;;;16.40;;
43146;SDS011;28752;48.266;7.402;2022-08-18T13:59:18;17.75;;;15.95;;
43146;SDS011;28752;48.266;7.402;2022-08-18T14:01:45;17.38;;;15.68;;
43146;SDS011;28752;48.266;7.402;2022-08-18T14:04:12;18.17;;;16.27;;
43146;SDS011;28752;48.266;7.402;2022-08-18T14:06:38;17.50;;;15.65;;
43146;SDS011;28752;48.266;7.402;2022-08-18T14:09:04;18.60;;;16.80;;
43146;SDS011;28752;48.266;7.402;2022-08-18T14:13:56;18.08;;;16.27;;
43146;SDS011;28752;48.266;7.402;2022-08-18T14:16:23;19.17;;;17.17;;
43146;SDS011;28752;48.266;7.402;2022-08-18T14:18:49;19.10;;;17.17;;
43146;SDS011;28752;48.266;7.402;2022-08-18T14:21:33;17.30;;;15.57;;
43146;SDS011;28752;48.266;7.402;2022-08-18T14:24:19;18.92;;;16.95;;
43146;SDS011;28752;48.266;7.402;2022-08-18T14:27:03;17.52;;;15.82;;
43146;SDS011;28752;48.266;7.402;2022-08-18T14:29:30;18.05;;;16.35;;
43146;SDS011;28752;48.266;7.402;2022-08-18T14:31:55;18.25;;;16.48;;
43146;SDS011;28752;48.266;7.402;2022-08-18T14:34:21;19.25;;;16.98;;
43146;SDS011;28752;48.266;7.402;2022-08-18T14:36:46;17.92;;;16.13;;
43146;SDS011;28752;48.266;7.402;2022-08-18T14:39:12;16.73;;;14.60;;
43146;SDS011;28752;48.266;7.402;2022-08-18T14:41:38;16.30;;;14.70;;
43146;SDS011;28752;48.266;7.402;2022-08-18T14:44:03;16.35;;;14.75;;
43146;SDS011;28752;48.266;7.402;2022-08-18T14:48:54;15.43;;;13.93;;
43146;SDS011;28752;48.266;7.402;2022-08-18T14:51:19;15.27;;;13.77;;
43146;SDS011;28752;48.266;7.402;2022-08-18T14:53:46;15.43;;;13.93;;
43146;SDS011;28752;48.266;7.402;2022-08-18T14:56:11;14.63;;;13.23;;
43146;SDS011;28752;48.266;7.402;2022-08-18T14:58:37;16.27;;;14.68;;
43146;SDS011;28752;48.266;7.402;2022-08-18T15:01:05;16.58;;;14.98;;
43146;SDS011;28752;48.266;7.402;2022-08-18T15:03:33;16.65;;;14.77;;
43146;SDS011;28752;48.266;7.402;2022-08-18T15:06:00;17.25;;;14.65;;
43146;SDS011;28752;48.266;7.402;2022-08-18T15:08:26;16.17;;;14.48;;
43146;SDS011;28752;48.266;7.402;2022-08-18T15:10:52;17.52;;;15.65;;
43146;SDS011;28752;48.266;7.402;2022-08-18T15:13:19;16.33;;;14.73;;
43146;SDS011;28752;48.266;7.402;2022-08-18T15:15:44;13.75;;;12.45;;
43146;SDS011;28752;48.266;7.402;2022-08-18T15:20:36;15.60;;;14.10;;
43146;SDS011;28752;48.266;7.402;2022-08-18T15:23:22;15.55;;;13.98;;
43146;SDS011;28752;48.266;7.402;2022-08-18T15:26:06;14.70;;;13.13;;
43146;SDS011;28752;48.266;7.402;2022-08-18T15:28:34;15.52;;;13.93;;
43146;SDS011;28752;48.266;7.402;2022-08-18T15:30:59;14.85;;;13.32;;
43146;SDS011;28752;48.266;7.402;2022-08-18T15:33:25;14.10;;;12.55;;
43146;SDS011;28752;48.266;7.402;2022-08-18T15:35:52;14.25;;;12.95;;
43146;SDS011;28752;48.266;7.402;2022-08-18T15:38:19;14.00;;;12.70;;
43146;SDS011;28752;48.266;7.402;2022-08-18T15:40:51;15.00;;;13.52;;
43146;SDS011;28752;48.266;7.402;2022-08-18T15:43:16;14.27;;;12.88;;
43146;SDS011;28752;48.266;7.402;2022-08-18T15:45:43;13.52;;;12.13;;
43146;SDS011;28752;48.266;7.402;2022-08-18T15:48:12;13.27;;;11.98;;
43146;SDS011;28752;48.266;7.402;2022-08-18T15:50:42;15.30;;;13.40;;
43146;SDS011;28752;48.266;7.402;2022-08-18T15:53:11;13.45;;;12.15;;
43146;SDS011;28752;48.266;7.402;2022-08-18T15:55:37;12.98;;;11.75;;
43146;SDS011;28752;48.266;7.402;2022-08-18T15:58:04;13.55;;;12.15;;
43146;SDS011;28752;48.266;7.402;2022-08-18T16:00:30;13.68;;;12.32;;
43146;SDS011;28752;48.266;7.402;2022-08-18T16:02:59;13.40;;;12.10;;
43146;SDS011;28752;48.266;7.402;2022-08-18T16:05:29;12.27;;;11.07;;
43146;SDS011;28752;48.266;7.402;2022-08-18T16:07:55;12.63;;;11.43;;
43146;SDS011;28752;48.266;7.402;2022-08-18T16:10:23;12.70;;;11.40;;
43146;SDS011;28752;48.266;7.402;2022-08-18T16:12:50;12.40;;;11.23;;
43146;SDS011;28752;48.266;7.402;2022-08-18T16:15:20;12.38;;;11.18;;
43146;SDS011;28752;48.266;7.402;2022-08-18T16:17:49;13.13;;;11.85;;
43146;SDS011;28752;48.266;7.402;2022-08-18T16:20:15;12.70;;;11.50;;
43146;SDS011;28752;48.266;7.402;2022-08-18T16:22:42;12.23;;;11.13;;
43146;SDS011;28752;48.266;7.402;2022-08-18T16:25:08;11.68;;;10.57;;
43146;SDS011;28752;48.266;7.402;2022-08-18T16:30:00;12.80;;;11.50;;
43146;SDS011;28752;48.266;7.402;2022-08-18T16:32:28;12.93;;;11.65;;
43146;SDS011;28752;48.266;7.402;2022-08-18T16:34:55;12.57;;;11.10;;
43146;SDS011;28752;48.266;7.402;2022-08-18T16:37:21;12.65;;;11.45;;
43146;SDS011;28752;48.266;7.402;2022-08-18T16:39:46;12.73;;;11.43;;
43146;SDS011;28752;48.266;7.402;2022-08-18T16:42:11;12.75;;;11.55;;
43146;SDS011;28752;48.266;7.402;2022-08-18T16:47:03;12.02;;;10.82;;
43146;SDS011;28752;48.266;7.402;2022-08-18T16:49:29;12.70;;;11.38;;
43146;SDS011;28752;48.266;7.402;2022-08-18T16:51:57;12.32;;;11.02;;
43146;SDS011;28752;48.266;7.402;2022-08-18T16:54:25;12.90;;;11.43;;
43146;SDS011;28752;48.266;7.402;2022-08-18T16:56:54;13.18;;;11.88;;
43146;SDS011;28752;48.266;7.402;2022-08-18T16:59:19;12.48;;;11.18;;
43146;SDS011;28752;48.266;7.402;2022-08-18T17:02:03;12.52;;;11.25;;
43146;SDS011;28752;48.266;7.402;2022-08-18T17:04:48;12.10;;;10.88;;
43146;SDS011;28752;48.266;7.402;2022-08-18T17:07:16;11.88;;;10.77;;
43146;SDS011;28752;48.266;7.402;2022-08-18T17:12:07;12.20;;;10.90;;
43146;SDS011;28752;48.266;7.402;2022-08-18T17:14:33;12.27;;;11.07;;
43146;SDS011;28752;48.266;7.402;2022-08-18T17:16:58;12.70;;;11.50;;
43146;SDS011;28752;48.266;7.402;2022-08-18T17:19:26;12.25;;;11.05;;
43146;SDS011;28752;48.266;7.402;2022-08-18T17:21:55;12.93;;;11.55;;
43146;SDS011;28752;48.266;7.402;2022-08-18T17:24:21;12.30;;;10.77;;
43146;SDS011;28752;48.266;7.402;2022-08-18T17:32:28;12.73;;;11.45;;
43146;SDS011;28752;48.266;7.402;2022-08-18T17:35:06;12.10;;;10.80;;
43146;SDS011;28752;48.266;7.402;2022-08-18T17:37:38;13.00;;;11.60;;
43146;SDS011;28752;48.266;7.402;2022-08-18T17:40:15;11.93;;;10.70;;
43146;SDS011;28752;48.266;7.402;2022-08-18T17:42:48;11.70;;;10.50;;
43146;SDS011;28752;48.266;7.402;2022-08-18T17:45:14;14.38;;;11.38;;
43146;SDS011;28752;48.266;7.402;2022-08-18T17:50:50;13.55;;;11.80;;
43146;SDS011;28752;48.266;7.402;2022-08-18T17:53:46;13.10;;;11.80;;
43146;SDS011;28752;48.266;7.402;2022-08-18T17:56:25;13.18;;;11.88;;
43146;SDS011;28752;48.266;7.402;2022-08-18T17:59:11;13.85;;;12.45;;
43146;SDS011;28752;48.266;7.402;2022-08-18T18:01:45;13.35;;;12.00;;
43146;SDS011;28752;48.266;7.402;2022-08-18T18:04:11;12.68;;;11.48;;
43146;SDS011;28752;48.266;7.402;2022-08-18T18:06:37;12.40;;;11.07;;
43146;SDS011;28752;48.266;7.402;2022-08-18T18:09:11;12.60;;;11.40;;
43146;SDS011;28752;48.266;7.402;2022-08-18T18:11:53;13.55;;;12.10;;
43146;SDS011;28752;48.266;7.402;2022-08-18T18:14:39;14.13;;;12.73;;
43146;SDS011;28752;48.266;7.402;2022-08-18T18:17:18;14.18;;;12.30;;
43146;SDS011;28752;48.266;7.402;2022-08-18T18:20:14;13.02;;;11.52;;
43146;SDS011;28752;48.266;7.402;2022-08-18T18:23:18;12.73;;;11.43;;
43146;SDS011;28752;48.266;7.402;2022-08-18T18:25:45;13.45;;;12.20;;
43146;SDS011;28752;48.266;7.402;2022-08-18T18:30:58;13.85;;;12.48;;
43146;SDS011;28752;48.266;7.402;2022-08-18T18:33:46;14.75;;;12.25;;
43146;SDS011;28752;48.266;7.402;2022-08-18T18:36:31;14.30;;;12.77;;
43146;SDS011;28752;48.266;7.402;2022-08-18T18:39:07;14.00;;;12.60;;
43146;SDS011;28752;48.266;7.402;2022-08-18T18:41:34;13.10;;;11.68;;
43146;SDS011;28752;48.266;7.402;2022-08-18T18:44:07;13.85;;;12.45;;
43146;SDS011;28752;48.266;7.402;2022-08-18T18:49:26;13.13;;;11.82;;
43146;SDS011;28752;48.266;7.402;2022-08-18T18:52:34;14.40;;;12.90;;
43146;SDS011;28752;48.266;7.402;2022-08-18T18:55:15;14.55;;;13.15;;
43146;SDS011;28752;48.266;7.402;2022-08-18T19:03:32;14.65;;;13.18;;
43146;SDS011;28752;48.266;7.402;2022-08-18T19:06:16;14.10;;;12.70;;
43146;SDS011;28752;48.266;7.402;2022-08-18T19:14:38;13.75;;;12.45;;
43146;SDS011;28752;48.266;7.402;2022-08-18T19:20:02;15.00;;;13.52;;
43146;SDS011;28752;48.266;7.402;2022-08-18T19:22:49;14.13;;;12.68;;
43146;SDS011;28752;48.266;7.402;2022-08-18T19:25:40;15.02;;;13.50;;
43146;SDS011;28752;48.266;7.402;2022-08-18T19:31:17;15.85;;;13.50;;
43146;SDS011;28752;48.266;7.402;2022-08-18T19:33:49;14.13;;;12.73;;
43146;SDS011;28752;48.266;7.402;2022-08-18T19:36:27;14.98;;;13.48;;
43146;SDS011;28752;48.266;7.402;2022-08-18T19:41:58;15.57;;;13.48;;
43146;SDS011;28752;48.266;7.402;2022-08-18T19:44:40;14.30;;;13.00;;
43146;SDS011;28752;48.266;7.402;2022-08-18T19:50:12;13.93;;;12.63;;
43146;SDS011;28752;48.266;7.402;2022-08-18T20:00:42;15.40;;;13.07;;
43146;SDS011;28752;48.266;7.402;2022-08-18T20:03:23;14.25;;;12.88;;
43146;SDS011;28752;48.266;7.402;2022-08-18T20:05:58;14.15;;;12.80;;
43146;SDS011;28752;48.266;7.402;2022-08-18T20:11:14;14.23;;;12.73;;
43146;SDS011;28752;48.266;7.402;2022-08-18T20:13:41;14.63;;;12.80;;
43146;SDS011;28752;48.266;7.402;2022-08-18T20:19:36;15.52;;;13.82;;
43146;SDS011;28752;48.266;7.402;2022-08-18T20:22:04;14.38;;;12.98;;
43146;SDS011;28752;48.266;7.402;2022-08-18T20:27:13;14.30;;;12.85;;
43146;SDS011;28752;48.266;7.402;2022-08-18T20:32:33;14.18;;;12.77;;
43146;SDS011;28752;48.266;7.402;2022-08-18T20:35:23;13.90;;;12.43;;
43146;SDS011;28752;48.266;7.402;2022-08-18T20:40:58;14.10;;;12.80;;
43146;SDS011;28752;48.266;7.402;2022-08-18T20:45:54;14.60;;;13.15;;
43146;SDS011;28752;48.266;7.402;2022-08-18T20:59:11;14.88;;;13.38;;
43146;SDS011;28752;48.266;7.402;2022-08-18T21:02:06;14.35;;;12.85;;
43146;SDS011;28752;48.266;7.402;2022-08-18T21:04:52;13.33;;;12.03;;
43146;SDS011;28752;48.266;7.402;2022-08-18T21:07:25;14.50;;;13.10;;
43146;SDS011;28752;48.266;7.402;2022-08-18T21:09:53;13.38;;;12.07;;
43146;SDS011;28752;48.266;7.402;2022-08-18T21:12:22;13.77;;;12.30;;
43146;SDS011;28752;48.266;7.402;2022-08-18T21:14:50;13.80;;;12.40;;
43146;SDS011;28752;48.266;7.402;2022-08-18T21:17:18;13.38;;;12.13;;
43146;SDS011;28752;48.266;7.402;2022-08-18T21:19:44;12.98;;;11.68;;
43146;SDS011;28752;48.266;7.402;2022-08-18T21:22:10;14.48;;;12.57;;
43146;SDS011;28752;48.266;7.402;2022-08-18T21:24:37;14.05;;;12.48;;
43146;SDS011;28752;48.266;7.402;2022-08-18T21:27:08;13.65;;;12.07;;
43146;SDS011;28752;48.266;7.402;2022-08-18T21:29:43;13.52;;;12.23;;
43146;SDS011;28752;48.266;7.402;2022-08-18T21:32:15;13.35;;;12.05;;
43146;SDS011;28752;48.266;7.402;2022-08-18T21:34:45;15.77;;;12.93;;
43146;SDS011;28752;48.266;7.402;2022-08-18T21:39:48;15.07;;;13.68;;
43146;SDS011;28752;48.266;7.402;2022-08-18T21:42:37;16.20;;;14.60;;
43146;SDS011;28752;48.266;7.402;2022-08-18T21:45:15;16.65;;;15.05;;
43146;SDS011;28752;48.266;7.402;2022-08-18T21:47:50;17.92;;;16.08;;
43146;SDS011;28752;48.266;7.402;2022-08-18T21:50:25;17.52;;;15.70;;
43146;SDS011;28752;48.266;7.402;2022-08-18T21:53:02;19.33;;;17.45;;
43146;SDS011;28752;48.266;7.402;2022-08-18T21:55:42;19.77;;;17.77;;
43146;SDS011;28752;48.266;7.402;2022-08-18T22:03:20;21.65;;;19.35;;
43146;SDS011;28752;48.266;7.402;2022-08-18T22:08:24;17.67;;;15.98;;
43146;SDS011;28752;48.266;7.402;2022-08-18T22:13:58;18.85;;;17.02;;
43146;SDS011;28752;48.266;7.402;2022-08-18T22:16:51;18.92;;;16.77;;
43146;SDS011;28752;48.266;7.402;2022-08-18T22:21:47;19.00;;;17.20;;
43146;SDS011;28752;48.266;7.402;2022-08-18T22:24:21;19.88;;;17.88;;
43146;SDS011;28752;48.266;7.402;2022-08-18T22:27:12;18.05;;;16.15;;
43146;SDS011;28752;48.266;7.402;2022-08-18T22:32:25;17.30;;;15.60;;
43146;SDS011;28752;48.266;7.402;2022-08-18T22:34:50;16.03;;;14.33;;
43146;SDS011;28752;48.266;7.402;2022-08-18T22:37:21;16.70;;;15.02;;
43146;SDS011;28752;48.266;7.402;2022-08-18T22:39:54;18.60;;;16.70;;
43146;SDS011;28752;48.266;7.402;2022-08-18T22:42:23;15.27;;;13.75;;
43146;SDS011;28752;48.266;7.402;2022-08-18T22:44:50;16.65;;;14.95;;
43146;SDS011;28752;48.266;7.402;2022-08-18T22:47:17;16.15;;;14.57;;
43146;SDS011;28752;48.266;7.402;2022-08-18T22:49:42;17.25;;;15.38;;
43146;SDS011;28752;48.266;7.402;2022-08-18T22:52:10;16.77;;;14.98;;
43146;SDS011;28752;48.266;7.402;2022-08-18T22:54:50;16.35;;;14.50;;
43146;SDS011;28752;48.266;7.402;2022-08-18T22:57:15;16.20;;;14.57;;
43146;SDS011;28752;48.266;7.402;2022-08-18T22:59:42;17.17;;;15.40;;
43146;SDS011;28752;48.266;7.402;2022-08-18T23:02:10;17.05;;;15.35;;
43146;SDS011;28752;48.266;7.402;2022-08-18T23:04:36;16.70;;;15.00;;
43146;SDS011;28752;48.266;7.402;2022-08-18T23:07:01;16.73;;;15.05;;
43146;SDS011;28752;48.266;7.402;2022-08-18T23:09:29;15.35;;;13.82;;
43146;SDS011;28752;48.266;7.402;2022-08-18T23:11:56;15.80;;;14.27;;
43146;SDS011;28752;48.266;7.402;2022-08-18T23:14:24;15.30;;;13.80;;
43146;SDS011;28752;48.266;7.402;2022-08-18T23:16:50;14.65;;;13.02;;
43146;SDS011;28752;48.266;7.402;2022-08-18T23:19:17;16.23;;;14.70;;
43146;SDS011;28752;48.266;7.402;2022-08-18T23:21:43;16.80;;;15.07;;
43146;SDS011;28752;48.266;7.402;2022-08-18T23:24:11;15.48;;;13.98;;
43146;SDS011;28752;48.266;7.402;2022-08-18T23:26:39;15.23;;;13.70;;
43146;SDS011;28752;48.266;7.402;2022-08-18T23:31:33;14.38;;;13.00;;
43146;SDS011;28752;48.266;7.402;2022-08-18T23:33:59;16.03;;;14.33;;
43146;SDS011;28752;48.266;7.402;2022-08-18T23:36:28;14.00;;;12.55;;
43146;SDS011;28752;48.266;7.402;2022-08-18T23:38:55;14.85;;;13.25;;
43146;SDS011;28752;48.266;7.402;2022-08-18T23:41:21;15.13;;;13.35;;
43146;SDS011;28752;48.266;7.402;2022-08-18T23:43:47;14.45;;;13.05;;
43146;SDS011;28752;48.266;7.402;2022-08-18T23:46:18;15.38;;;13.77;;
43146;SDS011;28752;48.266;7.402;2022-08-18T23:48:49;15.40;;;13.02;;
43146;SDS011;28752;48.266;7.402;2022-08-18T23:51:22;15.05;;;13.60;;
43146;SDS011;28752;48.266;7.402;2022-08-18T23:53:54;15.10;;;13.48;;
43146;SDS011;28752;48.266;7.402;2022-08-18T23:56:22;14.90;;;13.50;;
43146;SDS011;28752;48.266;7.402;2022-08-18T23:58:48;14.63;;;13.13;;
